createdAt,value
2019-05-12T00:01:48.144Z,19.62
2019-05-12T00:04:18.725Z,19.80
2019-05-12T00:06:47.905Z,18.90
2019-05-12T00:11:45.528Z,22.27
2019-05-12T00:14:14.362Z,22.13
2019-05-12T00:16:42.797Z,22.52
2019-05-12T00:19:11.294Z,20.55
2019-05-12T00:21:40.025Z,21.55
2019-05-12T00:24:11.308Z,21.77
2019-05-12T00:26:42.454Z,21.30
2019-05-12T00:29:10.963Z,20.68
2019-05-12T00:31:39.515Z,21.50
2019-05-12T00:34:07.989Z,19.65
2019-05-12T00:36:37.975Z,20.45
2019-05-12T00:39:08.707Z,19.55
2019-05-12T00:41:39.008Z,23.00
2019-05-12T00:44:08.795Z,22.37
2019-05-12T00:46:38.523Z,20.75
2019-05-12T00:49:08.043Z,21.15
2019-05-12T00:51:58.724Z,21.65
2019-05-12T00:54:28.544Z,20.17
2019-05-12T00:56:58.539Z,20.50
2019-05-12T00:59:27.952Z,20.37
2019-05-12T01:01:58.588Z,20.15
2019-05-12T01:04:28.955Z,20.10
2019-05-12T01:06:58.255Z,21.07
2019-05-12T01:09:28.167Z,20.12
2019-05-12T01:11:58.841Z,19.75
2019-05-12T01:14:27.881Z,20.88
2019-05-12T01:16:57.839Z,21.97
2019-05-12T01:19:28.600Z,20.65
2019-05-12T01:21:58.651Z,19.45
2019-05-12T01:24:28.167Z,20.02
2019-05-12T01:26:58.237Z,20.05
2019-05-12T01:29:28.207Z,18.80
2019-05-12T01:32:04.181Z,18.95
2019-05-12T01:34:32.670Z,18.87
2019-05-12T01:37:18.989Z,20.62
2019-05-12T01:40:08.902Z,19.27
2019-05-12T01:42:38.267Z,20.15
2019-05-12T01:45:09.231Z,19.23
2019-05-12T01:47:38.392Z,19.05
2019-05-12T01:50:09.054Z,18.75
2019-05-12T01:52:38.679Z,17.82
2019-05-12T01:55:08.383Z,18.85
2019-05-12T01:57:48.605Z,19.57
2019-05-12T02:00:18.335Z,16.65
2019-05-12T02:02:48.067Z,15.63
2019-05-12T02:05:18.295Z,15.43
2019-05-12T02:07:51.000Z,14.95
2019-05-12T02:10:19.881Z,15.15
2019-05-12T02:12:49.255Z,14.30
2019-05-12T02:15:19.159Z,15.40
2019-05-12T02:17:48.257Z,14.00
2019-05-12T02:20:18.070Z,13.58
2019-05-12T02:22:47.759Z,13.60
2019-05-12T02:25:18.450Z,13.10
2019-05-12T02:27:47.674Z,13.25
2019-05-12T02:30:20.349Z,13.72
2019-05-12T02:32:53.140Z,12.82
2019-05-12T02:35:17.581Z,11.90
2019-05-12T02:37:45.983Z,11.50
2019-05-12T02:40:15.353Z,10.82
2019-05-12T02:42:46.360Z,10.43
2019-05-12T02:45:15.367Z,10.58
2019-05-12T02:47:45.597Z,10.08
2019-05-12T02:50:17.545Z,9.85
2019-05-12T02:52:46.509Z,10.37
2019-05-12T02:55:35.309Z,9.40
2019-05-12T02:58:05.393Z,9.18
2019-05-12T03:00:36.218Z,9.55
2019-05-12T03:03:08.318Z,9.05
2019-05-12T03:05:38.709Z,9.75
2019-05-12T03:08:07.224Z,11.22
2019-05-12T03:10:36.469Z,11.22
2019-05-12T03:13:05.163Z,11.08
2019-05-12T03:15:36.502Z,10.43
2019-05-12T03:18:06.179Z,11.65
2019-05-12T03:20:35.512Z,11.55
2019-05-12T03:23:05.712Z,12.13
2019-05-12T03:25:36.116Z,13.00
2019-05-12T03:28:08.623Z,13.22
2019-05-12T03:30:38.174Z,13.62
2019-05-12T03:33:09.233Z,13.85
2019-05-12T03:35:42.307Z,15.23
2019-05-12T03:38:05.981Z,14.78
2019-05-12T03:40:37.756Z,14.75
2019-05-12T03:43:05.614Z,14.93
2019-05-12T03:45:35.850Z,14.95
2019-05-12T03:48:05.482Z,15.40
2019-05-12T03:50:35.338Z,14.93
2019-05-12T03:53:24.767Z,14.55
2019-05-12T03:55:55.237Z,14.73
2019-05-12T03:58:45.272Z,15.50
2019-05-12T04:01:15.008Z,14.58
2019-05-12T04:03:45.083Z,14.07
2019-05-12T04:06:15.498Z,15.18
2019-05-12T04:08:45.531Z,15.23
2019-05-12T04:11:14.790Z,14.63
2019-05-12T04:13:45.168Z,15.65
2019-05-12T04:16:16.535Z,13.18
2019-05-12T04:18:45.106Z,15.05
2019-05-12T04:21:15.506Z,14.78
2019-05-12T04:23:44.472Z,15.10
2019-05-12T04:26:16.732Z,15.38
2019-05-12T04:28:45.552Z,15.88
2019-05-12T04:31:15.438Z,15.63
2019-05-12T04:33:45.184Z,16.40
2019-05-12T04:36:14.790Z,15.75
2019-05-12T04:38:45.066Z,16.48
2019-05-12T04:41:14.588Z,16.67
2019-05-12T04:43:44.776Z,14.63
2019-05-12T04:46:14.681Z,14.90
2019-05-12T04:48:45.285Z,14.07
2019-05-12T04:51:15.371Z,15.15
2019-05-12T04:53:44.868Z,16.15
2019-05-12T04:56:19.128Z,15.15
2019-05-12T04:58:45.086Z,14.18
2019-05-12T05:01:15.621Z,13.98
2019-05-12T05:03:44.355Z,14.00
2019-05-12T05:06:14.908Z,13.55
2019-05-12T05:08:44.279Z,12.98
2019-05-12T05:11:14.729Z,13.20
2019-05-12T05:13:44.433Z,12.60
2019-05-12T05:16:14.395Z,12.28
2019-05-12T05:18:43.949Z,13.43
2019-05-12T05:21:13.862Z,13.95
2019-05-12T05:23:44.311Z,12.68
2019-05-12T05:26:22.138Z,8.80
2019-05-12T05:28:43.666Z,7.80
2019-05-12T05:31:14.061Z,8.20
2019-05-12T05:33:43.428Z,6.28
2019-05-12T05:36:15.280Z,6.05
2019-05-12T05:38:43.705Z,5.72
2019-05-12T05:41:13.829Z,5.58
2019-05-12T05:43:43.752Z,5.55
2019-05-12T05:46:13.843Z,5.40
2019-05-12T05:48:43.887Z,5.00
2019-05-12T05:51:13.638Z,5.12
2019-05-12T05:53:49.786Z,5.50
2019-05-12T05:56:18.398Z,5.12
2019-05-12T05:58:51.844Z,5.15
2019-05-12T06:01:17.395Z,5.03
2019-05-12T06:03:45.900Z,5.05
2019-05-12T06:06:15.375Z,5.37
2019-05-12T06:08:45.782Z,4.80
2019-05-12T06:11:22.929Z,5.42
2019-05-12T06:13:44.469Z,4.95
2019-05-12T06:16:20.086Z,5.33
2019-05-12T06:18:43.971Z,5.05
2019-05-12T06:21:13.735Z,5.28
2019-05-12T06:23:43.462Z,5.25
2019-05-12T06:26:14.006Z,5.35
2019-05-12T06:28:43.933Z,6.20
2019-05-12T06:31:13.857Z,5.33
2019-05-12T06:33:44.560Z,5.60
2019-05-12T06:36:21.769Z,6.28
2019-05-12T06:38:43.459Z,5.85
2019-05-12T06:41:20.319Z,5.10
2019-05-12T06:43:45.171Z,5.67
2019-05-12T06:46:20.517Z,5.45
2019-05-12T06:48:45.358Z,6.15
2019-05-12T06:51:15.477Z,5.10
2019-05-12T06:53:44.355Z,5.75
2019-05-12T06:56:19.663Z,5.83
2019-05-12T06:58:45.035Z,5.93
2019-05-12T07:01:19.207Z,6.10
2019-05-12T07:03:44.117Z,5.67
2019-05-12T07:06:17.935Z,5.37
2019-05-12T07:09:02.068Z,5.72
2019-05-12T07:11:20.683Z,5.28
2019-05-12T07:14:01.243Z,5.25
2019-05-12T07:16:29.185Z,5.22
2019-05-12T07:18:49.521Z,5.30
2019-05-12T07:21:19.828Z,5.87
2019-05-12T07:23:48.350Z,6.05
2019-05-12T07:26:19.527Z,5.42
2019-05-12T07:28:46.979Z,5.37
2019-05-12T07:31:15.584Z,5.70
2019-05-12T07:33:45.948Z,5.67
2019-05-12T07:36:15.598Z,5.75
2019-05-12T07:38:46.559Z,5.58
2019-05-12T07:41:15.659Z,5.65
2019-05-12T07:43:50.588Z,5.70
2019-05-12T07:46:18.114Z,4.70
2019-05-12T07:48:50.763Z,5.85
2019-05-12T07:51:16.928Z,5.58
2019-05-12T07:53:54.650Z,5.67
2019-05-12T07:56:19.573Z,4.62
2019-05-12T07:58:47.552Z,5.12
2019-05-12T08:01:17.497Z,5.20
2019-05-12T08:03:45.908Z,4.78
2019-05-12T08:06:14.428Z,4.90
2019-05-12T08:08:50.369Z,5.42
2019-05-12T08:11:14.937Z,4.58
2019-05-12T08:13:43.867Z,5.15
2019-05-12T08:16:14.218Z,4.62
2019-05-12T08:18:44.469Z,5.45
2019-05-12T08:21:14.033Z,4.60
2019-05-12T08:23:44.524Z,4.42
2019-05-12T08:26:18.371Z,4.20
2019-05-12T08:28:44.142Z,4.67
2019-05-12T08:31:14.139Z,4.87
2019-05-12T08:33:43.627Z,4.65
2019-05-12T08:36:16.063Z,4.12
2019-05-12T08:39:05.912Z,4.65
2019-05-12T08:41:34.818Z,4.10
2019-05-12T08:44:04.618Z,4.03
2019-05-12T08:46:34.426Z,3.55
2019-05-12T08:49:05.460Z,4.10
2019-05-12T08:51:34.012Z,4.12
2019-05-12T08:54:07.047Z,3.77
2019-05-12T08:56:33.227Z,4.37
2019-05-12T08:59:04.163Z,3.70
2019-05-12T09:01:34.348Z,3.80
2019-05-12T09:04:06.602Z,3.83
2019-05-12T09:06:35.179Z,3.45
2019-05-12T09:09:06.762Z,3.10
2019-05-12T09:11:35.203Z,3.58
2019-05-12T09:14:05.857Z,3.60
2019-05-12T09:16:34.617Z,3.17
2019-05-12T09:19:04.928Z,3.52
2019-05-12T09:21:34.862Z,3.50
2019-05-12T09:24:04.376Z,3.17
2019-05-12T09:26:34.434Z,3.20
2019-05-12T09:29:03.444Z,3.12
2019-05-12T09:31:33.644Z,2.92
2019-05-12T09:34:05.908Z,3.22
2019-05-12T09:36:33.897Z,3.12
2019-05-12T09:39:03.843Z,3.10
2019-05-12T09:41:36.026Z,3.30
2019-05-12T09:44:04.544Z,3.15
2019-05-12T09:46:37.282Z,3.27
2019-05-12T09:49:04.823Z,3.22
2019-05-12T09:51:41.181Z,2.85
2019-05-12T09:54:05.208Z,2.45
2019-05-12T09:56:34.298Z,3.00
2019-05-12T09:59:17.283Z,2.55
2019-05-12T10:01:37.415Z,2.80
2019-05-12T10:04:03.595Z,2.65
2019-05-12T10:06:33.907Z,2.70
2019-05-12T10:09:03.547Z,3.00
2019-05-12T10:11:32.117Z,3.25
2019-05-12T10:14:06.477Z,2.65
2019-05-12T10:16:33.428Z,2.62
2019-05-12T10:19:03.938Z,2.42
2019-05-12T10:21:32.364Z,2.87
2019-05-12T10:24:02.821Z,2.90
2019-05-12T10:26:31.222Z,2.60
2019-05-12T10:29:13.354Z,3.47
2019-05-12T10:31:34.806Z,4.72
2019-05-12T10:34:17.923Z,2.60
2019-05-12T10:36:49.102Z,2.95
2019-05-12T10:39:18.006Z,3.52
2019-05-12T10:41:47.776Z,2.58
2019-05-12T10:44:16.334Z,2.77
2019-05-12T10:46:46.720Z,2.60
2019-05-12T10:49:15.125Z,2.60
2019-05-12T10:51:44.817Z,2.70
2019-05-12T10:54:15.747Z,3.15
2019-05-12T10:56:44.289Z,2.62
2019-05-12T10:59:13.330Z,2.70
2019-05-12T11:01:45.651Z,2.58
2019-05-12T11:04:14.193Z,3.12
2019-05-12T11:06:44.758Z,2.95
2019-05-12T11:09:13.953Z,2.83
2019-05-12T11:11:46.804Z,2.83
2019-05-12T11:14:14.247Z,2.45
2019-05-12T11:16:44.585Z,2.75
2019-05-12T11:19:13.742Z,2.67
2019-05-12T11:21:44.286Z,2.92
2019-05-12T11:24:13.831Z,2.83
2019-05-12T11:26:43.273Z,2.70
2019-05-12T11:29:14.019Z,2.77
2019-05-12T11:31:44.087Z,2.70
2019-05-12T11:34:12.495Z,3.05
2019-05-12T11:36:41.020Z,2.80
2019-05-12T11:39:09.479Z,2.60
2019-05-12T11:41:38.094Z,2.47
2019-05-12T11:44:06.725Z,3.17
2019-05-12T11:46:36.398Z,2.40
2019-05-12T11:49:05.060Z,1.90
2019-05-12T11:51:34.076Z,2.47
2019-05-12T11:54:03.530Z,2.45
2019-05-12T11:56:33.577Z,2.37
2019-05-12T11:59:02.299Z,2.58
2019-05-12T12:01:31.110Z,2.20
2019-05-12T12:04:18.992Z,2.47
2019-05-12T12:06:47.615Z,1.82
2019-05-12T12:09:18.886Z,2.17
2019-05-12T12:11:46.438Z,1.80
2019-05-12T12:14:14.941Z,2.00
2019-05-12T12:16:50.141Z,2.30
2019-05-12T12:19:13.599Z,2.50
2019-05-12T12:21:47.989Z,2.17
2019-05-12T12:24:13.201Z,2.20
2019-05-12T12:26:44.262Z,2.02
2019-05-12T12:29:13.642Z,2.00
2019-05-12T12:31:54.219Z,1.98
2019-05-12T12:34:25.352Z,2.10
2019-05-12T12:36:54.443Z,1.98
2019-05-12T12:39:23.801Z,1.80
2019-05-12T12:41:59.767Z,1.82
2019-05-12T12:44:24.235Z,2.10
2019-05-12T12:46:59.886Z,2.00
2019-05-12T12:49:23.446Z,2.40
2019-05-12T12:51:52.074Z,2.40
2019-05-12T12:54:20.525Z,1.85
2019-05-12T12:56:49.054Z,1.90
2019-05-12T12:59:17.588Z,1.92
2019-05-12T13:01:45.998Z,1.75
2019-05-12T13:04:14.489Z,2.02
2019-05-12T13:06:43.799Z,2.17
2019-05-12T13:09:18.297Z,1.98
2019-05-12T13:11:44.491Z,1.60
2019-05-12T13:14:13.492Z,1.50
2019-05-12T13:16:43.653Z,1.50
2019-05-12T13:19:16.877Z,1.80
2019-05-12T13:21:43.887Z,1.77
2019-05-12T13:24:12.714Z,1.70
2019-05-12T13:26:43.443Z,1.98
2019-05-12T13:29:13.359Z,1.50
2019-05-12T13:31:46.492Z,1.65
2019-05-12T13:34:11.751Z,1.65
2019-05-12T13:36:40.209Z,1.60
2019-05-12T13:39:11.304Z,1.50
2019-05-12T13:41:39.067Z,1.87
2019-05-12T13:44:07.660Z,1.30
2019-05-12T13:46:36.099Z,1.60
2019-05-12T13:49:04.529Z,1.67
2019-05-12T13:51:33.330Z,1.77
2019-05-12T13:54:03.875Z,1.80
2019-05-12T13:56:33.597Z,1.85
2019-05-12T13:59:04.212Z,2.10
2019-05-12T14:01:40.135Z,1.95
2019-05-12T14:04:04.037Z,2.30
2019-05-12T14:06:37.863Z,1.85
2019-05-12T14:09:04.274Z,1.60
2019-05-12T14:11:34.442Z,2.27
2019-05-12T14:14:11.502Z,1.90
2019-05-12T14:16:33.926Z,1.47
2019-05-12T14:19:03.638Z,1.30
2019-05-12T14:21:40.618Z,1.92
2019-05-12T14:24:02.775Z,1.40
2019-05-12T14:26:33.249Z,1.72
2019-05-12T14:29:03.802Z,1.77
2019-05-12T14:31:36.254Z,1.60
2019-05-12T14:34:04.194Z,1.98
2019-05-12T14:36:32.157Z,1.52
2019-05-12T14:39:08.461Z,1.17
2019-05-12T14:41:30.777Z,1.47
2019-05-12T14:44:03.637Z,1.20
2019-05-12T14:46:29.543Z,1.60
2019-05-12T14:48:58.020Z,1.50
2019-05-12T14:51:26.488Z,1.90
2019-05-12T14:53:54.911Z,1.12
2019-05-12T14:56:23.492Z,1.20
2019-05-12T14:58:56.440Z,1.30
2019-05-12T15:01:23.853Z,1.25
2019-05-12T15:03:53.542Z,1.37
2019-05-12T15:06:25.590Z,1.25
2019-05-12T15:08:54.144Z,1.27
2019-05-12T15:11:23.731Z,1.12
2019-05-12T15:13:54.161Z,1.30
2019-05-12T15:16:23.765Z,1.35
2019-05-12T15:18:54.160Z,1.20
2019-05-12T15:21:27.448Z,1.35
2019-05-12T15:23:53.408Z,1.35
2019-05-12T15:26:23.990Z,1.20
2019-05-12T15:28:54.298Z,1.10
2019-05-12T15:31:23.479Z,1.50
2019-05-12T15:33:52.345Z,1.00
2019-05-12T15:36:20.858Z,1.00
2019-05-12T15:38:54.492Z,1.42
2019-05-12T15:41:20.168Z,1.25
2019-05-12T15:43:49.372Z,1.47
2019-05-12T15:46:19.142Z,0.90
2019-05-12T15:48:47.580Z,1.12
2019-05-12T15:51:15.999Z,1.20
2019-05-12T15:53:44.721Z,1.00
2019-05-12T15:56:19.244Z,1.40
2019-05-12T15:58:44.187Z,1.10
2019-05-12T16:01:13.927Z,1.37
2019-05-12T16:03:43.789Z,1.27
2019-05-12T16:06:14.806Z,1.10
2019-05-12T16:08:42.518Z,0.90
2019-05-12T16:11:10.947Z,1.30
2019-05-12T16:13:44.109Z,1.30
2019-05-12T16:16:09.759Z,1.27
2019-05-12T16:18:40.446Z,1.42
2019-05-12T16:21:09.428Z,1.10
2019-05-12T16:23:38.327Z,1.20
2019-05-12T16:26:12.168Z,1.10
2019-05-12T16:28:37.116Z,1.20
2019-05-12T16:31:08.690Z,1.15
2019-05-12T16:33:35.811Z,1.10
2019-05-12T16:36:06.638Z,1.15
2019-05-12T16:38:34.528Z,1.12
2019-05-12T16:41:03.748Z,1.22
2019-05-12T16:43:34.942Z,1.10
2019-05-12T16:46:04.407Z,1.17
2019-05-12T16:48:35.950Z,1.10
2019-05-12T16:51:03.396Z,1.35
2019-05-12T16:53:33.951Z,1.40
2019-05-12T16:56:04.197Z,2.42
2019-05-12T16:58:35.184Z,1.50
2019-05-12T17:01:03.802Z,1.05
2019-05-12T17:03:34.186Z,1.00
2019-05-12T17:06:03.494Z,1.30
2019-05-12T17:08:34.359Z,1.10
2019-05-12T17:11:21.784Z,1.32
2019-05-12T17:13:34.052Z,1.00
2019-05-12T17:16:04.271Z,1.15
2019-05-12T17:18:33.988Z,1.10
2019-05-12T17:21:04.233Z,0.95
2019-05-12T17:23:32.972Z,1.35
2019-05-12T17:26:03.489Z,1.32
2019-05-12T17:28:31.675Z,1.05
2019-05-12T17:31:03.795Z,1.00
2019-05-12T17:33:33.910Z,1.12
2019-05-12T17:36:11.097Z,1.00
2019-05-12T17:38:34.581Z,1.47
2019-05-12T17:41:03.759Z,1.00
2019-05-12T17:43:33.836Z,0.90
2019-05-12T17:46:13.486Z,1.10
2019-05-12T17:48:42.801Z,1.12
2019-05-12T17:51:10.253Z,1.30
2019-05-12T17:53:43.529Z,1.02
2019-05-12T17:56:13.929Z,2.72
2019-05-12T17:58:46.944Z,1.30
2019-05-12T18:01:14.332Z,1.32
2019-05-12T18:03:48.690Z,1.70
2019-05-12T18:06:14.112Z,1.60
2019-05-12T18:08:44.321Z,2.75
2019-05-12T18:11:16.070Z,2.75
2019-05-12T18:13:44.780Z,1.10
2019-05-12T18:16:20.674Z,3.20
2019-05-12T18:18:43.659Z,1.50
2019-05-12T18:21:21.198Z,1.75
2019-05-12T18:23:43.606Z,1.47
2019-05-12T18:26:16.183Z,1.50
2019-05-12T18:28:44.250Z,1.82
2019-05-12T18:31:13.869Z,1.70
2019-05-12T18:33:50.911Z,1.50
2019-05-12T18:36:14.334Z,1.60
2019-05-12T18:38:44.789Z,1.40
2019-05-12T18:41:13.893Z,1.37
2019-05-12T18:43:43.552Z,1.40
2019-05-12T18:46:14.107Z,1.10
2019-05-12T18:49:03.643Z,1.27
2019-05-12T18:51:26.049Z,1.30
2019-05-12T18:53:57.719Z,1.30
2019-05-12T18:56:24.956Z,1.20
2019-05-12T18:58:54.540Z,1.37
2019-05-12T19:01:24.447Z,1.00
2019-05-12T19:03:54.737Z,1.40
2019-05-12T19:06:23.556Z,1.50
2019-05-12T19:08:53.869Z,1.50
2019-05-12T19:11:26.157Z,1.82
2019-05-12T19:13:57.026Z,1.47
2019-05-12T19:16:23.858Z,1.60
2019-05-12T19:18:55.410Z,1.45
2019-05-12T19:21:23.679Z,1.40
2019-05-12T19:23:54.344Z,1.42
2019-05-12T19:26:22.732Z,1.30
2019-05-12T19:28:55.838Z,1.17
2019-05-12T19:31:24.598Z,1.32
2019-05-12T19:34:11.367Z,1.72
2019-05-12T19:36:24.025Z,1.65
2019-05-12T19:38:54.500Z,1.30
2019-05-12T19:41:24.560Z,1.47
2019-05-12T19:43:53.468Z,1.32
2019-05-12T19:46:24.086Z,1.30
2019-05-12T19:48:53.952Z,1.80
2019-05-12T19:51:27.772Z,2.10
2019-05-12T19:53:52.815Z,2.00
2019-05-12T19:56:23.616Z,3.05
2019-05-12T19:58:53.553Z,2.95
2019-05-12T20:01:26.004Z,2.60
2019-05-12T20:03:55.517Z,2.60
2019-05-12T20:06:24.134Z,2.67
2019-05-12T20:08:54.064Z,1.60
2019-05-12T20:11:29.304Z,1.52
2019-05-12T20:13:53.780Z,2.30
2019-05-12T20:16:29.751Z,2.95
2019-05-12T20:18:57.464Z,2.27
2019-05-12T20:21:26.073Z,2.10
2019-05-12T20:23:54.439Z,2.30
2019-05-12T20:26:23.735Z,2.17
2019-05-12T20:28:53.413Z,2.05
2019-05-12T20:31:26.801Z,1.60
2019-05-12T20:33:57.425Z,1.90
2019-05-12T20:36:25.933Z,2.00
2019-05-12T20:38:53.846Z,1.90
2019-05-12T20:41:26.518Z,1.77
2019-05-12T20:43:52.750Z,1.62
2019-05-12T20:46:25.480Z,2.10
2019-05-12T20:48:53.666Z,1.80
2019-05-12T20:51:21.797Z,1.40
2019-05-12T20:53:50.454Z,1.30
2019-05-12T20:56:22.019Z,1.75
2019-05-12T20:58:50.446Z,1.80
2019-05-12T21:01:20.134Z,1.47
2019-05-12T21:03:50.945Z,1.47
2019-05-12T21:06:19.434Z,1.30
2019-05-12T21:08:53.851Z,1.50
2019-05-12T21:11:18.199Z,2.35
2019-05-12T21:13:46.636Z,1.50
2019-05-12T21:16:19.938Z,1.55
2019-05-12T21:18:50.670Z,1.37
2019-05-12T21:21:15.469Z,1.45
2019-05-12T21:23:45.551Z,1.77
2019-05-12T21:26:14.168Z,1.72
2019-05-12T21:28:47.924Z,1.80
2019-05-12T21:31:14.214Z,1.70
2019-05-12T21:33:42.858Z,1.70
2019-05-12T21:36:15.437Z,1.55
2019-05-12T21:38:41.462Z,1.75
2019-05-12T21:41:10.213Z,1.87
2019-05-12T21:43:38.750Z,1.80
2019-05-12T21:46:12.260Z,1.50
2019-05-12T21:48:37.563Z,1.77
2019-05-12T21:51:09.747Z,1.47
2019-05-12T21:53:36.258Z,1.72
2019-05-12T21:56:05.724Z,1.57
2019-05-12T21:58:34.366Z,1.95
2019-05-12T22:01:07.547Z,1.62
2019-05-12T22:03:34.777Z,1.75
2019-05-12T22:06:14.842Z,1.90
2019-05-12T22:08:33.895Z,1.90
2019-05-12T22:11:09.606Z,1.85
2019-05-12T22:13:32.805Z,2.05
2019-05-12T22:16:03.654Z,2.00
2019-05-12T22:18:33.388Z,1.87
2019-05-12T22:21:04.488Z,1.50
2019-05-12T22:23:33.719Z,1.60
2019-05-12T22:26:04.139Z,1.87
2019-05-12T22:28:34.166Z,1.72
2019-05-12T22:31:02.792Z,1.98
2019-05-12T22:33:33.217Z,1.77
2019-05-12T22:36:06.291Z,1.62
2019-05-12T22:38:33.870Z,1.37
2019-05-12T22:41:03.850Z,1.82
2019-05-12T22:43:40.734Z,1.70
2019-05-12T22:46:04.368Z,2.05
2019-05-12T22:48:37.367Z,1.82
2019-05-12T22:51:06.068Z,1.50
2019-05-12T22:53:32.608Z,1.60
2019-05-12T22:56:02.962Z,1.85
2019-05-12T22:58:33.612Z,1.60
2019-05-12T23:01:03.142Z,1.47
2019-05-12T23:03:31.830Z,2.00
2019-05-12T23:06:01.864Z,1.60
2019-05-12T23:08:30.530Z,1.90
2019-05-12T23:10:59.041Z,1.95
2019-05-12T23:13:32.250Z,2.00
2019-05-12T23:15:57.668Z,2.08
2019-05-12T23:18:30.696Z,1.62
2019-05-12T23:20:58.057Z,1.87
2019-05-12T23:23:26.493Z,2.00
2019-05-12T23:26:00.503Z,2.30
2019-05-12T23:28:25.057Z,1.98
2019-05-12T23:30:53.641Z,2.60
2019-05-12T23:33:25.507Z,2.00
2019-05-12T23:35:53.560Z,2.00
2019-05-12T23:38:24.389Z,2.30
2019-05-12T23:40:53.729Z,2.00
2019-05-12T23:43:23.751Z,2.05
2019-05-12T23:45:53.302Z,2.08
2019-05-12T23:48:21.926Z,2.27
2019-05-12T23:50:50.400Z,2.08
2019-05-12T23:53:18.827Z,2.20
2019-05-12T23:55:47.264Z,2.52
2019-05-12T23:58:15.874Z,2.30
